Time;durP1;ratioP1;P1;durP2;ratioP2;P2;SDS_P1;SDS_P2;PMS_P1;PMS_P2;Temp;Humidity;BMP_temperature;BMP_pressure;BME280_temperature;BME280_humidity;BME280_pressure;Samples;Min_cycle;Max_cycle;Signal;HPM_P1;HPM_P2
2023/03/26 00:01:18;;;;;;;3.05;0.75;;;;;;;7.27;79.71;96550.81;5000320;28;20137;-73
2023/03/26 00:03:52;;;;;;;2.42;1.30;;;;;;;7.27;79.90;96553.47;5010159;28;20046;-73
2023/03/26 00:06:21;;;;;;;0.65;0.50;;;;;;;7.31;79.72;96559.19;5008373;28;20060;-73
2023/03/26 00:08:49;;;;;;;0.60;0.43;;;;;;;7.26;80.60;96565.13;5016093;28;20046;-73
2023/03/26 00:11:18;;;;;;;0.93;0.47;;;;;;;7.24;80.10;96571.63;5001740;28;20057;-73
2023/03/26 00:13:46;;;;;;;3.60;1.10;;;;;;;7.23;80.24;96570.00;4998754;28;20026;-73
2023/03/26 00:16:15;;;;;;;3.10;1.02;;;;;;;7.28;80.16;96568.38;5000401;28;20038;-73
2023/03/26 00:18:43;;;;;;;0.45;0.43;;;;;;;7.33;79.82;96565.13;5009238;28;20109;-73
2023/03/26 00:21:17;;;;;;;1.50;0.57;;;;;;;7.35;79.71;96563.91;4998100;28;20134;-73
2023/03/26 00:23:46;;;;;;;1.40;0.60;;;;;;;7.33;79.51;96563.28;4998542;28;20030;-74
2023/03/26 00:26:14;;;;;;;1.20;0.60;;;;;;;7.33;79.24;96562.47;4998461;28;20092;-73
2023/03/26 00:28:42;;;;;;;2.50;0.65;;;;;;;7.31;79.62;96577.78;5013177;28;20132;-74
2023/03/26 00:31:12;;;;;;;3.95;0.70;;;;;;;7.30;79.71;96582.25;5012751;28;20038;-73
2023/03/26 00:33:41;;;;;;;1.60;1.40;;;;;;;7.34;79.27;96569.41;5008319;28;20424;-73
2023/03/26 00:36:13;;;;;;;1.23;0.80;;;;;;;7.33;79.73;96573.09;5004059;28;20041;-73
2023/03/26 00:38:43;;;;;;;2.17;0.57;;;;;;;7.37;79.48;96574.34;5024113;28;20042;-74
2023/03/26 00:41:21;;;;;;;1.05;0.63;;;;;;;7.40;79.94;96576.56;5012336;28;20374;-73
2023/03/26 00:43:50;;;;;;;0.45;0.45;;;;;;;7.40;79.25;96573.91;5006550;28;20149;-73
2023/03/26 00:46:17;;;;;;;0.60;0.60;;;;;;;7.35;79.82;96574.53;5010849;28;20061;-73
2023/03/26 00:48:46;;;;;;;3.55;0.77;;;;;;;7.40;79.74;96575.75;5010025;28;20037;-74
2023/03/26 00:51:15;;;;;;;2.95;0.90;;;;;;;7.43;79.78;96565.56;5009078;28;20049;-73
2023/03/26 00:53:45;;;;;;;1.88;0.50;;;;;;;7.36;79.76;96565.56;5013941;28;20088;-73
2023/03/26 00:56:13;;;;;;;0.50;0.47;;;;;;;7.37;79.93;96561.06;5007713;28;20042;-73
2023/03/26 00:58:40;;;;;;;2.85;1.00;;;;;;;7.32;80.21;96566.16;5007815;28;20041;-74
2023/03/26 01:01:13;;;;;;;2.13;0.50;;;;;;;7.34;80.14;96556.97;5013457;28;20068;-73
2023/03/26 01:03:41;;;;;;;0.65;0.50;;;;;;;7.31;80.58;96556.53;5023713;28;20088;-74
2023/03/26 01:06:26;;;;;;;1.30;0.82;;;;;;;7.25;80.53;96562.66;5021968;28;20132;-75
2023/03/26 01:08:59;;;;;;;0.85;0.82;;;;;;;7.21;80.75;96562.22;5010842;28;20153;-75
2023/03/26 01:11:29;;;;;;;1.52;0.85;;;;;;;7.16;81.21;96569.16;5009829;28;20494;-75
2023/03/26 01:13:59;;;;;;;0.98;0.80;;;;;;;7.23;81.16;96580.63;5013140;28;20045;-74
2023/03/26 01:16:29;;;;;;;2.15;1.38;;;;;;;7.17;81.27;96570.78;5009386;28;20411;-74
2023/03/26 01:18:59;;;;;;;1.77;0.57;;;;;;;7.11;81.63;96574.22;5011903;28;20049;-74
2023/03/26 01:21:29;;;;;;;1.23;0.60;;;;;;;7.07;81.79;96576.44;5009542;28;20050;-75
2023/03/26 01:24:00;;;;;;;2.78;1.08;;;;;;;7.06;81.78;96569.50;5011330;28;20074;-75
2023/03/26 01:26:40;;;;;;;1.02;0.80;;;;;;;7.10;81.57;96567.28;5007866;28;20501;-74
2023/03/26 01:29:12;;;;;;;1.48;0.50;;;;;;;7.08;81.89;96574.63;5010900;28;20513;-74
2023/03/26 01:31:46;;;;;;;1.00;0.82;;;;;;;7.09;81.66;96563.81;5012064;28;20448;-74
2023/03/26 01:34:18;;;;;;;0.60;0.60;;;;;;;7.08;81.71;96582.56;5011988;28;20046;-74
2023/03/26 01:36:51;;;;;;;1.45;0.82;;;;;;;7.09;81.58;96581.56;5012186;28;20413;-75
2023/03/26 01:39:27;;;;;;;1.48;1.15;;;;;;;7.10;81.61;96572.59;5025516;28;20296;-75
2023/03/26 01:41:57;;;;;;;0.40;0.40;;;;;;;7.07;81.16;96563.19;5008538;28;20046;-75
2023/03/26 01:44:30;;;;;;;1.15;0.60;;;;;;;7.07;80.98;96576.44;5005979;28;20473;-75
2023/03/26 01:46:59;;;;;;;1.23;0.60;;;;;;;7.08;81.08;96564.81;5009354;28;20081;-75
2023/03/26 01:49:27;;;;;;;1.80;0.98;;;;;;;7.18;80.90;96564.44;5013328;28;20123;-75
2023/03/26 01:51:56;;;;;;;1.13;0.70;;;;;;;7.25;80.59;96560.81;5009481;28;20061;-75
2023/03/26 01:54:27;;;;;;;2.88;0.80;;;;;;;7.18;80.60;96557.31;5026926;28;20038;-75
2023/03/26 01:57:02;;;;;;;3.30;0.70;;;;;;;7.10;80.25;96541.56;5004649;28;20101;-74
2023/03/26 01:59:43;;;;;;;1.48;0.80;;;;;;;7.13;79.97;96545.66;5023339;28;20101;-74
2023/03/26 02:02:13;;;;;;;0.88;0.47;;;;;;;7.08;80.49;96551.56;5010793;28;20041;-74
2023/03/26 02:04:45;;;;;;;4.10;1.58;;;;;;;7.10;79.96;96556.66;5010780;28;20048;-74
2023/03/26 02:07:19;;;;;;;2.22;0.88;;;;;;;7.09;80.21;96553.19;5010523;28;20460;-74
2023/03/26 02:09:51;;;;;;;2.80;0.95;;;;;;;7.08;80.32;96561.34;5004553;28;20113;-74
2023/03/26 02:12:20;;;;;;;4.10;1.33;;;;;;;7.08;80.35;96554.22;5027181;28;20567;-74
2023/03/26 02:14:48;;;;;;;1.48;1.02;;;;;;;7.08;80.10;96545.44;5011893;28;20489;-74
2023/03/26 02:17:15;;;;;;;4.15;1.20;;;;;;;7.11;80.46;96548.53;5004167;28;20061;-75
2023/03/26 02:19:43;;;;;;;1.90;1.10;;;;;;;7.19;79.94;96547.50;5011285;28;20046;-75
2023/03/26 02:22:14;;;;;;;3.05;1.20;;;;;;;7.30;80.06;96547.75;5011165;28;20046;-74
2023/03/26 02:24:44;;;;;;;3.67;1.00;;;;;;;7.23;80.13;96543.47;5009003;28;20038;-75
2023/03/26 02:27:17;;;;;;;2.55;1.10;;;;;;;7.33;79.83;96549.19;5007222;28;20081;-74
2023/03/26 02:29:46;;;;;;;;;;;;;;;7.20;79.73;96541.19;5006724;28;20096;-74
2023/03/26 02:32:14;;;;;;;1.98;1.15;;;;;;;7.18;80.06;96544.03;5006298;28;19928;-74
2023/03/26 02:34:42;;;;;;;1.45;0.98;;;;;;;7.19;80.27;96548.34;5008861;28;20549;-74
2023/03/26 02:37:10;;;;;;;1.40;1.13;;;;;;;7.18;80.36;96551.19;5010049;28;20141;-75
2023/03/26 02:39:41;;;;;;;3.17;0.90;;;;;;;7.15;80.36;96541.81;5008458;28;20513;-74
2023/03/26 02:42:22;;;;;;;1.40;0.80;;;;;;;7.24;79.94;96539.78;5010289;28;20058;-74
2023/03/26 02:44:50;;;;;;;3.25;0.85;;;;;;;7.22;80.04;96545.28;5004342;28;20042;-74
2023/03/26 02:47:17;;;;;;;4.32;1.95;;;;;;;7.26;79.93;96553.69;5011310;28;20068;-74
2023/03/26 02:50:10;;;;;;;1.42;1.00;;;;;;;7.20;80.18;96544.66;5000514;28;20046;-74
2023/03/26 02:53:01;;;;;;;1.20;0.93;;;;;;;7.22;80.23;96540.00;5000117;28;20082;-74
2023/03/26 02:55:33;;;;;;;2.33;0.70;;;;;;;7.20;80.04;96536.72;5009378;28;20062;-74
2023/03/26 02:58:03;;;;;;;4.47;1.00;;;;;;;7.24;80.40;96537.97;5007142;28;20046;-73
2023/03/26 03:00:36;;;;;;;2.15;1.02;;;;;;;7.25;80.21;96544.91;5005407;28;20042;-74
2023/03/26 03:03:26;;;;;;;1.65;0.98;;;;;;;7.25;79.75;96534.28;5008767;28;20143;-74
2023/03/26 03:06:00;;;;;;;5.95;1.10;;;;;;;7.21;80.45;96537.53;5004825;28;20057;-74
2023/03/26 03:08:36;;;;;;;3.05;1.27;;;;;;;7.25;80.05;96530.81;5003501;28;20042;-73
2023/03/26 03:11:20;;;;;;;1.23;0.98;;;;;;;7.25;80.16;96522.84;5010265;28;20124;-74
2023/03/26 03:13:51;;;;;;;4.45;1.50;;;;;;;7.23;80.09;96514.28;5007511;28;20066;-73
2023/03/26 03:16:22;;;;;;;3.42;1.27;;;;;;;7.34;79.53;96513.69;5000469;28;20099;-73
2023/03/26 03:18:55;;;;;;;3.53;1.27;;;;;;;7.28;80.00;96519.78;5006601;28;20050;-74
2023/03/26 03:21:28;;;;;;;1.90;0.85;;;;;;;7.26;80.16;96513.88;4999543;28;20100;-73
2023/03/26 03:23:56;;;;;;;2.47;1.15;;;;;;;7.23;80.23;96516.91;5009184;28;20144;-74
2023/03/26 03:26:29;;;;;;;2.65;0.90;;;;;;;7.19;80.43;96505.88;5018561;28;20049;-74
2023/03/26 03:29:03;;;;;;;3.15;1.13;;;;;;;7.20;80.36;96510.19;5006952;28;20133;-74
2023/03/26 03:31:30;;;;;;;2.63;0.85;;;;;;;7.20;80.74;96506.69;5010371;28;20179;-74
2023/03/26 03:34:03;;;;;;;1.67;0.85;;;;;;;7.31;79.86;96504.28;5006741;28;20050;-74
2023/03/26 03:36:37;;;;;;;1.58;0.73;;;;;;;7.31;79.24;96503.47;5003139;28;20060;-74
2023/03/26 03:39:32;;;;;;;1.48;0.80;;;;;;;7.26;79.45;96501.44;5009380;28;20077;-74
2023/03/26 03:41:59;;;;;;;1.88;1.08;;;;;;;7.21;79.29;96506.50;5008166;28;20111;-74
2023/03/26 03:44:29;;;;;;;1.60;0.90;;;;;;;7.19;79.18;96505.88;5009221;28;20498;-73
2023/03/26 03:46:58;;;;;;;3.42;1.00;;;;;;;7.23;79.31;96507.13;5008033;28;20473;-73
2023/03/26 03:49:25;;;;;;;3.45;0.88;;;;;;;7.28;79.02;96503.84;5009562;28;20046;-73
2023/03/26 03:51:56;;;;;;;3.38;1.63;;;;;;;7.36;78.50;96496.56;5003224;28;20480;-73
2023/03/26 03:54:29;;;;;;;0.98;0.82;;;;;;;7.32;78.41;96505.09;5000413;28;20054;-74
2023/03/26 03:57:17;;;;;;;2.00;0.75;;;;;;;7.26;78.69;96496.13;5007687;28;20117;-74
2023/03/26 04:00:10;;;;;;;1.25;0.98;;;;;;;7.28;78.43;96504.69;5008145;28;20038;-74
2023/03/26 04:02:48;;;;;;;2.03;0.88;;;;;;;7.21;78.46;96505.69;5019121;28;20165;-74
2023/03/26 04:05:17;;;;;;;1.35;0.60;;;;;;;7.18;78.34;96506.91;5003039;28;20073;-74
2023/03/26 04:07:49;;;;;;;2.55;1.00;;;;;;;7.18;78.89;96503.44;5008538;28;20042;-74
2023/03/26 04:10:25;;;;;;;2.67;0.90;;;;;;;7.28;78.10;96509.16;5004697;28;20053;-73
2023/03/26 04:13:22;;;;;;;2.78;0.98;;;;;;;7.22;78.63;96502.84;5002139;28;20097;-74
2023/03/26 04:16:08;;;;;;;1.55;0.63;;;;;;;7.20;78.96;96509.34;5008724;28;20080;-74
2023/03/26 04:18:36;;;;;;;0.65;0.57;;;;;;;7.20;78.48;96496.09;5007483;28;20065;-74
2023/03/26 04:21:11;;;;;;;2.78;0.80;;;;;;;7.28;78.28;96509.16;5009801;28;20081;-74
2023/03/26 04:23:39;;;;;;;5.57;1.45;;;;;;;7.21;78.37;96509.16;5009909;28;20078;-74
2023/03/26 04:26:19;;;;;;;3.40;0.93;;;;;;;7.26;78.01;96503.25;5007505;28;20041;-74
2023/03/26 04:29:04;;;;;;;4.80;1.10;;;;;;;7.25;78.18;96504.28;5009748;28;20093;-74
2023/03/26 04:31:34;;;;;;;1.70;0.80;;;;;;;7.28;78.37;96512.63;5012646;28;20038;-74
2023/03/26 04:34:06;;;;;;;3.25;1.00;;;;;;;7.30;78.35;96507.13;5009623;28;20066;-74
2023/03/26 04:36:42;;;;;;;3.65;1.30;;;;;;;7.33;78.10;96507.56;5005854;28;20052;-74
2023/03/26 04:39:12;;;;;;;3.15;0.70;;;;;;;7.23;78.21;96501.00;5008963;28;20141;-74
2023/03/26 04:42:09;;;;;;;3.75;1.02;;;;;;;7.21;78.47;96511.00;5002193;28;20034;-74
2023/03/26 04:44:49;;;;;;;3.83;0.98;;;;;;;7.21;78.19;96503.84;5012329;28;20050;-74
2023/03/26 04:47:19;;;;;;;1.27;0.60;;;;;;;7.13;78.29;96508.53;5011971;28;20385;-74
2023/03/26 04:49:47;;;;;;;1.42;0.80;;;;;;;7.11;78.64;96503.41;5012342;28;20045;-74
2023/03/26 04:52:17;;;;;;;0.57;0.43;;;;;;;7.16;78.40;96506.31;5011693;28;20513;-74
2023/03/26 04:55:15;;;;;;;3.30;1.25;;;;;;;7.15;78.48;96511.81;5008630;28;20137;-74
2023/03/26 04:57:45;;;;;;;2.78;1.17;;;;;;;7.20;78.38;96512.81;5012416;28;20072;-74
2023/03/26 05:00:35;;;;;;;2.70;1.00;;;;;;;7.18;78.43;96514.84;5004431;28;20379;-74
2023/03/26 05:03:05;;;;;;;2.92;1.23;;;;;;;7.14;78.52;96516.28;5008055;28;20046;-73
2023/03/26 05:05:32;;;;;;;4.13;1.00;;;;;;;7.18;78.59;96511.38;5012303;28;20065;-73
2023/03/26 05:08:00;;;;;;;3.55;1.08;;;;;;;7.22;78.37;96516.09;5014232;28;20054;-73
2023/03/26 05:10:28;;;;;;;6.18;1.08;;;;;;;7.16;78.14;96521.41;5012417;28;20052;-74
2023/03/26 05:13:02;;;;;;;2.67;0.88;;;;;;;7.18;78.05;96509.56;5012211;28;20050;-73
2023/03/26 05:15:34;;;;;;;4.22;1.00;;;;;;;7.24;77.65;96497.34;5011015;28;20042;-73
2023/03/26 05:18:10;;;;;;;3.75;1.13;;;;;;;7.28;77.69;96494.06;5013976;28;20117;-73
2023/03/26 05:20:43;;;;;;;6.25;1.25;;;;;;;7.23;77.53;96501.00;5011109;28;20045;-73
2023/03/26 05:23:11;;;;;;;4.78;1.10;;;;;;;7.09;78.21;96499.31;5007274;28;20050;-73
2023/03/26 05:25:45;;;;;;;6.07;1.35;;;;;;;7.17;78.19;96485.88;5007527;28;20563;-73
2023/03/26 05:28:18;;;;;;;6.70;1.17;;;;;;;7.06;78.57;96495.22;5011194;28;20050;-73
2023/03/26 05:30:54;;;;;;;8.55;1.60;;;;;;;7.15;78.26;96490.59;5002603;28;20050;-73
2023/03/26 05:33:25;;;;;;;1.60;0.90;;;;;;;7.11;78.24;96486.69;5002871;28;20052;-74
2023/03/26 05:36:00;;;;;;;4.80;1.45;;;;;;;7.10;78.47;96495.66;5007564;28;20054;-73
2023/03/26 05:38:30;;;;;;;3.05;1.33;;;;;;;7.19;78.52;96497.91;5010512;28;20561;-74
2023/03/26 05:41:00;;;;;;;2.78;0.95;;;;;;;7.23;78.23;96499.16;5001587;28;20510;-74
2023/03/26 05:43:29;;;;;;;5.07;1.65;;;;;;;7.24;78.01;96490.19;5010358;28;20108;-74
2023/03/26 05:46:08;;;;;;;5.03;1.48;;;;;;;7.23;78.14;96488.56;5008204;28;20156;-74
2023/03/26 05:48:38;;;;;;;4.63;1.48;;;;;;;7.28;78.24;96487.94;5008887;28;20097;-74
2023/03/26 05:51:07;;;;;;;4.93;1.25;;;;;;;7.37;77.31;96497.38;5023688;28;20061;-73
2023/03/26 05:53:38;;;;;;;4.18;1.38;;;;;;;7.22;78.07;96492.22;5029548;28;20046;-73
2023/03/26 05:56:18;;;;;;;5.78;1.27;;;;;;;7.26;77.77;96490.00;5031856;28;20104;-73
2023/03/26 05:58:46;;;;;;;2.80;1.70;;;;;;;7.16;78.04;96493.03;5029890;28;20057;-74
2023/03/26 06:01:32;;;;;;;4.57;1.33;;;;;;;7.22;78.14;96489.56;5015966;28;20084;-74
2023/03/26 06:04:21;;;;;;;2.17;0.88;;;;;;;7.19;78.16;96489.13;5004152;28;20042;-74
2023/03/26 06:07:03;;;;;;;7.18;1.83;;;;;;;7.24;77.94;96484.88;5009225;28;20139;-76
2023/03/26 06:09:31;;;;;;;4.97;1.60;;;;;;;7.38;77.52;96488.34;5010838;28;20406;-74
2023/03/26 06:11:59;;;;;;;3.55;1.40;;;;;;;7.36;77.48;96479.81;5009513;28;20076;-76
2023/03/26 06:14:33;;;;;;;2.63;1.08;;;;;;;7.29;77.72;96484.25;5004384;28;20037;-76
2023/03/26 06:17:11;;;;;;;4.68;1.20;;;;;;;7.31;77.94;96485.72;5007630;28;20038;-75
2023/03/26 06:19:58;;;;;;;3.08;1.13;;;;;;;7.26;77.86;96476.72;5009713;28;20061;-74
2023/03/26 06:22:35;;;;;;;5.10;1.30;;;;;;;7.35;77.43;96475.50;5008064;28;20124;-76
2023/03/26 06:25:29;;;;;;;2.90;1.08;;;;;;;7.34;77.91;96472.03;4989448;28;20533;-75
2023/03/26 06:28:24;;;;;;;5.70;1.13;;;;;;;7.39;77.48;96466.09;5002555;28;20420;-74
2023/03/26 06:31:16;;;;;;;3.28;1.05;;;;;;;7.34;77.80;96465.91;5022616;28;20046;-76
2023/03/26 06:33:53;;;;;;;4.20;1.15;;;;;;;7.37;77.51;96461.00;5007088;28;20050;-74
2023/03/26 06:36:22;;;;;;;2.08;1.55;;;;;;;7.39;77.08;96471.41;5005120;28;20410;-74
2023/03/26 06:38:50;;;;;;;7.20;1.10;;;;;;;7.50;76.79;96465.50;5006801;28;20072;-74
2023/03/26 06:41:18;;;;;;;4.70;1.17;;;;;;;7.55;76.97;96463.06;5003722;28;20049;-76
2023/03/26 06:44:01;;;;;;;3.45;1.50;;;;;;;7.58;76.86;96473.28;5006792;28;20405;-76
2023/03/26 06:46:49;;;;;;;3.58;0.93;;;;;;;7.58;76.37;96460.00;4993722;28;20135;-75
2023/03/26 06:49:40;;;;;;;4.55;1.10;;;;;;;7.56;76.22;96462.06;5006476;28;20505;-73
2023/03/26 06:52:19;;;;;;;6.43;1.45;;;;;;;7.66;75.74;96454.50;5009625;28;20466;-74
2023/03/26 06:54:58;;;;;;;3.58;1.38;;;;;;;7.73;75.63;96463.28;5009435;28;20038;-73
2023/03/26 06:57:48;;;;;;;3.65;1.30;;;;;;;7.86;75.45;96449.19;5004953;28;20038;-74
2023/03/26 07:00:35;;;;;;;6.53;1.65;;;;;;;7.84;75.15;96450.41;5001315;28;20121;-75
2023/03/26 07:03:22;;;;;;;6.45;1.38;;;;;;;7.84;75.30;96453.06;5007388;28;20048;-75
2023/03/26 07:06:22;;;;;;;8.70;1.50;;;;;;;7.81;75.09;96441.00;5003982;28;20057;-73
2023/03/26 07:09:10;;;;;;;2.67;1.15;;;;;;;7.73;75.04;96441.22;5008155;28;20061;-73
2023/03/26 07:11:56;;;;;;;5.45;1.35;;;;;;;7.81;75.54;96440.19;5012813;28;20064;-75
2023/03/26 07:14:24;;;;;;;19.10;9.93;;;;;;;7.99;75.06;96432.41;5013705;28;20080;-75
2023/03/26 07:17:24;;;;;;;6.25;1.30;;;;;;;7.92;74.36;96428.94;4996831;28;20061;-75
2023/03/26 07:20:07;;;;;;;6.10;1.30;;;;;;;8.00;74.27;96426.03;5006506;28;20051;-75
2023/03/26 07:22:35;;;;;;;7.88;2.33;;;;;;;8.00;73.60;96418.06;5025608;28;20471;-74
2023/03/26 07:25:09;;;;;;;2.65;1.23;;;;;;;8.06;73.31;96410.09;5010765;28;20068;-76
2023/03/26 07:27:58;;;;;;;2.65;0.95;;;;;;;8.09;72.99;96414.19;5006881;28;20062;-75
2023/03/26 07:30:47;;;;;;;8.77;1.40;;;;;;;8.11;73.17;96398.84;5010473;28;20082;-75
2023/03/26 07:33:29;;;;;;;2.47;1.38;;;;;;;8.15;72.62;96389.44;5004451;28;20038;-76
2023/03/26 07:36:21;;;;;;;5.40;1.42;;;;;;;8.17;72.75;96383.91;4992940;28;20078;-77
2023/03/26 07:39:14;;;;;;;4.05;1.23;;;;;;;8.24;72.63;96385.53;5005401;28;20046;-77
2023/03/26 07:42:18;;;;;;;5.40;1.40;;;;;;;8.19;72.59;96377.38;5007014;28;20062;-77
2023/03/26 07:45:09;;;;;;;;;;;;;;;8.19;72.62;96385.34;5006377;28;20049;-77
2023/03/26 07:47:57;;;;;;;5.10;1.60;;;;;;;8.12;72.11;96376.56;5002512;28;20414;-78
2023/03/26 07:50:38;;;;;;;6.35;1.65;;;;;;;8.19;72.35;96379.22;5016190;28;20049;-78
2023/03/26 07:53:12;;;;;;;2.70;1.10;;;;;;;8.22;72.06;96387.56;5009118;28;20046;-78
2023/03/26 07:56:12;;;;;;;3.25;1.35;;;;;;;8.32;71.60;96382.66;5012156;28;20046;-79
2023/03/26 07:58:59;;;;;;;5.93;1.35;;;;;;;8.30;71.60;96389.19;5009360;28;20056;-78
2023/03/26 08:02:07;;;;;;;4.13;1.05;;;;;;;8.40;71.20;96379.78;5009485;28;20129;-77
2023/03/26 08:05:02;;;;;;;4.07;0.98;;;;;;;8.50;71.28;96376.66;4998612;28;20046;-78
2023/03/26 08:07:56;;;;;;;4.57;1.50;;;;;;;8.56;71.01;96372.34;5006348;28;20535;-78
2023/03/26 08:10:34;;;;;;;2.22;1.13;;;;;;;8.55;70.13;96368.84;5022640;28;20045;-77
2023/03/26 08:13:14;;;;;;;5.25;0.93;;;;;;;8.59;69.23;96367.41;5013576;28;20046;-77
2023/03/26 08:15:46;;;;;;;2.15;1.00;;;;;;;8.62;69.43;96358.16;5015927;28;20050;-78
2023/03/26 08:18:26;;;;;;;2.58;1.08;;;;;;;8.70;68.83;96360.59;5017494;28;20121;-78
2023/03/26 08:20:56;;;;;;;2.55;0.80;;;;;;;8.62;68.90;96359.00;5015070;28;20524;-78
2023/03/26 08:23:28;;;;;;;1.70;0.80;;;;;;;8.57;69.17;96355.34;5011866;28;20041;-79
2023/03/26 08:26:01;;;;;;;2.75;1.02;;;;;;;8.53;69.18;96344.31;5014307;28;20509;-77
2023/03/26 08:28:40;;;;;;;5.32;1.50;;;;;;;8.55;69.52;96358.22;5012307;28;20038;-76
2023/03/26 08:31:12;;;;;;;3.47;0.98;;;;;;;8.56;69.27;96349.22;5016764;28;20042;-76
2023/03/26 08:33:40;;;;;;;3.92;1.45;;;;;;;8.64;69.62;96350.81;5016789;28;20068;-78
2023/03/26 08:36:09;;;;;;;4.72;1.33;;;;;;;8.62;69.60;96352.84;5015737;28;20053;-78
2023/03/26 08:38:36;;;;;;;6.20;1.40;;;;;;;8.61;69.80;96353.91;5016617;28;20072;-77
2023/03/26 08:41:36;;;;;;;2.88;1.27;;;;;;;8.54;69.66;96353.09;5016357;28;20033;-78
2023/03/26 08:44:30;;;;;;;3.92;1.13;;;;;;;8.57;69.81;96353.50;5012580;28;20049;-78
2023/03/26 08:47:42;;;;;;;6.90;1.63;;;;;;;8.63;69.54;96357.97;5015753;28;20044;-78
2023/03/26 08:50:28;;;;;;;3.55;0.98;;;;;;;8.58;69.06;96333.88;5012516;28;20168;-77
2023/03/26 08:53:12;;;;;;;3.88;1.73;;;;;;;8.53;69.63;96348.81;5011871;28;20394;-76
2023/03/26 08:55:46;;;;;;;3.40;1.25;;;;;;;8.50;69.01;96350.06;5004226;28;20521;-76
2023/03/26 08:58:52;;;;;;;3.40;1.88;;;;;;;8.48;69.40;96341.50;5006727;28;20673;-75
2023/03/26 09:01:45;;;;;;;1.88;1.10;;;;;;;8.63;69.60;96343.84;5009475;28;20049;-77
2023/03/26 09:05:00;;;;;;;1.70;0.98;;;;;;;8.63;69.40;96327.88;5007189;28;20050;-77
2023/03/26 09:07:54;;;;;;;4.57;1.17;;;;;;;8.60;69.09;96329.16;4908730;29;20039;-78
2023/03/26 09:10:46;;;;;;;2.95;1.15;;;;;;;8.53;70.46;96320.38;4950359;29;20406;-78
2023/03/26 09:14:03;;;;;;;2.30;0.90;;;;;;;8.59;69.43;96311.56;5003968;28;20082;-78
2023/03/26 09:17:07;;;;;;;5.10;1.48;;;;;;;8.56;68.61;96303.19;4990395;28;20054;-78
2023/03/26 09:19:52;;;;;;;5.05;1.27;;;;;;;8.68;69.49;96309.47;5013758;28;20048;-77
2023/03/26 09:22:40;;;;;;;4.97;1.50;;;;;;;8.82;69.29;96303.81;5012119;28;20049;-78
2023/03/26 09:25:17;;;;;;;4.28;1.20;;;;;;;9.00;69.44;96297.78;5012271;28;20113;-78
2023/03/26 09:28:04;;;;;;;3.38;1.40;;;;;;;8.99;69.34;96290.81;5015444;28;20042;-77
2023/03/26 09:30:50;;;;;;;2.97;1.30;;;;;;;9.07;69.47;96276.41;5016385;28;20050;-77
2023/03/26 09:33:31;;;;;;;3.35;1.55;;;;;;;9.13;69.50;96292.34;5013414;28;20049;-77
2023/03/26 09:36:19;;;;;;;4.57;1.25;;;;;;;9.06;69.61;96283.59;5015476;28;20048;-77
2023/03/26 09:38:52;;;;;;;4.50;1.20;;;;;;;8.96;69.36;96287.75;5016616;28;20038;-78
2023/03/26 09:41:38;;;;;;;4.97;1.38;;;;;;;8.90;69.65;96285.97;5011308;28;20048;-77
2023/03/26 09:44:43;;;;;;;4.90;0.80;;;;;;;8.80;70.02;96281.97;5019620;28;20100;-77
2023/03/26 09:47:47;;;;;;;2.78;1.77;;;;;;;8.88;70.23;96280.06;5018690;28;20517;-77
2023/03/26 09:50:29;;;;;;;3.28;1.63;;;;;;;8.95;70.37;96278.16;5006343;28;20052;-77
2023/03/26 09:53:07;;;;;;;3.15;0.65;;;;;;;8.89;70.66;96276.38;5014195;28;20050;-77
2023/03/26 09:56:01;;;;;;;3.40;1.30;;;;;;;8.96;70.25;96280.59;4997858;28;20056;-77
2023/03/26 09:58:42;;;;;;;2.72;1.02;;;;;;;8.95;69.99;96275.50;5007201;28;20088;-78
2023/03/26 10:01:14;;;;;;;4.68;1.20;;;;;;;9.00;69.99;96271.16;5008708;28;20090;-76
2023/03/26 10:03:52;;;;;;;3.45;1.30;;;;;;;9.03;69.78;96260.06;5016035;28;20042;-77
2023/03/26 10:06:29;;;;;;;7.38;2.00;;;;;;;9.16;69.69;96259.94;5005604;28;20470;-77
2023/03/26 10:09:06;;;;;;;5.15;1.60;;;;;;;9.24;69.51;96258.84;5015920;28;20465;-78
2023/03/26 10:11:59;;;;;;;2.20;1.08;;;;;;;9.28;69.03;96259.25;5022083;28;20492;-77
2023/03/26 10:14:32;;;;;;;5.15;1.30;;;;;;;9.33;68.93;96244.25;5013978;28;20042;-77
2023/03/26 10:17:09;;;;;;;6.03;1.05;;;;;;;9.39;68.74;96240.69;5011497;28;20046;-78
2023/03/26 10:19:52;;;;;;;5.93;1.73;;;;;;;9.37;69.00;96231.28;5006395;28;20394;-77
2023/03/26 10:22:31;;;;;;;3.70;1.25;;;;;;;9.37;68.32;96236.63;5012422;28;20100;-77
2023/03/26 10:25:12;;;;;;;5.53;2.05;;;;;;;9.25;68.91;96225.88;5010010;28;20049;-76
2023/03/26 10:27:49;;;;;;;4.50;1.20;;;;;;;9.28;69.49;96219.31;5011585;28;20116;-77
2023/03/26 10:30:37;;;;;;;5.40;1.40;;;;;;;9.23;68.91;96227.16;5008577;28;20050;-77
2023/03/26 10:33:13;;;;;;;5.30;1.85;;;;;;;9.22;69.22;96225.53;5026578;28;20042;-77
2023/03/26 10:35:55;;;;;;;2.05;0.90;;;;;;;9.19;68.66;96205.47;5008075;28;20085;-76
2023/03/26 10:38:30;;;;;;;6.82;2.78;;;;;;;9.15;69.07;96223.72;5014217;28;20053;-77
2023/03/26 10:41:04;;;;;;;3.45;1.15;;;;;;;9.19;68.59;96216.13;5008774;28;20042;-77
2023/03/26 10:43:48;;;;;;;4.88;1.42;;;;;;;9.15;68.13;96205.09;5009717;28;20038;-77
2023/03/26 10:46:56;;;;;;;10.65;2.50;;;;;;;9.18;68.82;96219.81;5002307;28;20073;-77
2023/03/26 10:50:08;;;;;;;6.05;1.63;;;;;;;9.37;68.74;96218.78;5002036;28;20657;-76
2023/03/26 10:52:37;;;;;;;7.25;1.92;;;;;;;9.42;68.27;96220.81;4997146;28;20057;-76
2023/03/26 10:55:11;;;;;;;5.35;1.52;;;;;;;9.37;69.25;96210.00;5005606;28;20037;-77
2023/03/26 10:57:42;;;;;;;5.22;1.73;;;;;;;9.27;69.03;96204.38;5003280;28;20046;-77
2023/03/26 11:00:16;;;;;;;5.38;1.15;;;;;;;9.20;68.88;96202.59;5003785;28;20116;-76
2023/03/26 11:02:48;;;;;;;6.15;1.35;;;;;;;9.10;70.64;96196.97;4999752;28;20084;-76
2023/03/26 11:05:43;;;;;;;2.15;0.80;;;;;;;8.94;71.77;96216.13;5004333;28;20099;-77
2023/03/26 11:08:15;;;;;;;8.05;2.50;;;;;;;8.90;72.15;96211.50;5000893;28;20101;-77
2023/03/26 11:10:50;;;;;;;6.57;1.40;;;;;;;8.91;71.91;96211.28;5009506;28;20521;-76
2023/03/26 11:13:23;;;;;;;3.25;1.30;;;;;;;8.91;71.36;96199.81;5007369;28;20050;-76
2023/03/26 11:15:56;;;;;;;4.88;1.35;;;;;;;8.83;71.60;96214.19;5007726;28;20075;-76
2023/03/26 11:18:31;;;;;;;2.40;1.13;;;;;;;8.90;71.75;96214.97;5003354;28;20199;-77
2023/03/26 11:21:06;;;;;;;5.82;1.27;;;;;;;9.00;71.60;96215.28;5004339;28;20038;-76
2023/03/26 11:23:55;;;;;;;4.30;1.40;;;;;;;9.07;71.83;96210.69;5010909;28;20046;-77
2023/03/26 11:26:40;;;;;;;5.60;1.42;;;;;;;9.05;71.56;96207.44;4998687;28;20144;-77
2023/03/26 11:29:20;;;;;;;2.70;0.93;;;;;;;8.89;70.64;96207.19;5005558;28;20046;-76
2023/03/26 11:32:04;;;;;;;5.63;1.17;;;;;;;8.73;69.17;96211.19;5016731;28;20046;-77
2023/03/26 11:34:35;;;;;;;6.97;0.55;;;;;;;8.61;71.37;96192.50;5016748;28;20485;-78
2023/03/26 11:37:06;;;;;;;7.63;1.42;;;;;;;8.68;71.63;96213.72;5004691;28;20042;-77
2023/03/26 11:39:40;;;;;;;6.28;1.52;;;;;;;8.64;72.40;96204.53;5013734;28;20052;-77
2023/03/26 11:42:10;;;;;;;3.60;1.50;;;;;;;8.51;72.67;96212.63;5019356;28;20080;-77
2023/03/26 11:44:44;;;;;;;4.20;0.65;;;;;;;8.49;73.09;96196.06;5021444;28;20038;-77
2023/03/26 11:47:15;;;;;;;12.00;1.20;;;;;;;8.49;72.96;96204.84;5017203;28;20053;-78
2023/03/26 11:49:44;;;;;;;2.25;1.00;;;;;;;8.44;73.14;96208.16;5016917;28;20069;-77
2023/03/26 11:52:14;;;;;;;5.63;1.42;;;;;;;8.36;73.25;96211.06;5019147;28;20092;-77
2023/03/26 11:54:42;;;;;;;4.78;0.82;;;;;;;8.41;74.14;96207.75;5022740;28;20045;-77
2023/03/26 11:57:13;;;;;;;2.97;1.48;;;;;;;8.38;75.42;96205.56;5014434;28;20052;-77
2023/03/26 11:59:43;;;;;;;4.75;1.02;;;;;;;8.49;75.15;96210.19;5019917;28;20056;-77
2023/03/26 12:02:31;;;;;;;1.85;0.93;;;;;;;8.42;75.88;96209.38;5015391;28;20080;-77
2023/03/26 12:05:21;;;;;;;4.57;1.95;;;;;;;8.35;76.86;96198.00;5017311;28;20054;-78
2023/03/26 12:07:56;;;;;;;6.03;1.45;;;;;;;8.22;76.54;96198.84;5009033;28;20050;-77
2023/03/26 12:10:27;;;;;;;3.55;1.00;;;;;;;8.08;78.21;96203.47;5014436;28;20061;-77
2023/03/26 12:12:57;;;;;;;4.63;0.88;;;;;;;8.04;78.99;96196.13;5028479;28;20050;-78
2023/03/26 12:15:26;;;;;;;3.83;0.98;;;;;;;7.95;79.97;96198.22;5035917;28;20029;-79
2023/03/26 12:17:56;;;;;;;4.30;1.30;;;;;;;7.94;80.20;96196.59;5039024;28;20068;-79
2023/03/26 12:20:33;;;;;;;4.53;1.80;;;;;;;7.94;79.88;96198.41;5035239;28;20046;-79
2023/03/26 12:23:03;;;;;;;6.97;1.17;;;;;;;7.98;81.89;96196.97;5034613;28;20042;-77
2023/03/26 12:25:34;;;;;;;3.03;1.20;;;;;;;8.01;81.28;96188.56;5014803;28;20054;-77
2023/03/26 12:28:04;;;;;;;4.00;1.70;;;;;;;7.91;82.56;96194.34;5015469;28;20046;-78
2023/03/26 12:30:33;;;;;;;4.30;1.58;;;;;;;7.92;83.21;96187.19;5017334;28;20053;-78